sensor_id;sensor_type;location;lat;lon;timestamp;P1;durP1;ratioP1;P2;durP2;ratioP2
25213;SDS011;13160;51.834;4.706;2023-03-14T00:01:14;14.50;;;3.17;;
25213;SDS011;13160;51.834;4.706;2023-03-14T00:03:45;14.63;;;3.25;;
25213;SDS011;13160;51.834;4.706;2023-03-14T00:06:13;15.02;;;3.80;;
25213;SDS011;13160;51.834;4.706;2023-03-14T00:08:42;20.60;;;3.58;;
25213;SDS011;13160;51.834;4.706;2023-03-14T00:11:14;15.52;;;3.30;;
25213;SDS011;13160;51.834;4.706;2023-03-14T00:13:48;17.63;;;3.65;;
25213;SDS011;13160;51.834;4.706;2023-03-14T00:16:18;16.05;;;3.28;;
25213;SDS011;13160;51.834;4.706;2023-03-14T00:18:47;12.35;;;2.88;;
25213;SDS011;13160;51.834;4.706;2023-03-14T00:21:15;11.82;;;2.70;;
25213;SDS011;13160;51.834;4.706;2023-03-14T00:23:44;12.18;;;2.88;;
25213;SDS011;13160;51.834;4.706;2023-03-14T00:26:17;9.10;;;2.22;;
25213;SDS011;13160;51.834;4.706;2023-03-14T00:28:50;13.77;;;2.35;;
25213;SDS011;13160;51.834;4.706;2023-03-14T00:31:20;16.45;;;2.47;;
25213;SDS011;13160;51.834;4.706;2023-03-14T00:33:50;12.77;;;2.30;;
25213;SDS011;13160;51.834;4.706;2023-03-14T00:36:20;16.27;;;2.83;;
25213;SDS011;13160;51.834;4.706;2023-03-14T00:38:50;15.63;;;2.72;;
25213;SDS011;13160;51.834;4.706;2023-03-14T00:41:21;16.38;;;2.78;;
25213;SDS011;13160;51.834;4.706;2023-03-14T00:43:50;16.27;;;2.97;;
25213;SDS011;13160;51.834;4.706;2023-03-14T00:46:19;13.90;;;2.75;;
25213;SDS011;13160;51.834;4.706;2023-03-14T00:48:49;14.10;;;2.65;;
25213;SDS011;13160;51.834;4.706;2023-03-14T00:51:17;16.60;;;3.47;;
25213;SDS011;13160;51.834;4.706;2023-03-14T00:53:46;15.40;;;2.80;;
25213;SDS011;13160;51.834;4.706;2023-03-14T00:56:15;15.18;;;2.53;;
25213;SDS011;13160;51.834;4.706;2023-03-14T00:58:45;16.85;;;2.45;;
25213;SDS011;13160;51.834;4.706;2023-03-14T01:01:17;16.83;;;3.13;;
25213;SDS011;13160;51.834;4.706;2023-03-14T01:03:50;15.23;;;2.70;;
25213;SDS011;13160;51.834;4.706;2023-03-14T01:06:20;17.75;;;2.63;;
25213;SDS011;13160;51.834;4.706;2023-03-14T01:08:51;15.23;;;2.22;;
25213;SDS011;13160;51.834;4.706;2023-03-14T01:11:21;15.93;;;2.65;;
25213;SDS011;13160;51.834;4.706;2023-03-14T01:13:53;17.35;;;2.70;;
25213;SDS011;13160;51.834;4.706;2023-03-14T01:16:23;17.50;;;3.10;;
25213;SDS011;13160;51.834;4.706;2023-03-14T01:18:54;15.43;;;2.25;;
25213;SDS011;13160;51.834;4.706;2023-03-14T01:21:24;14.27;;;2.78;;
25213;SDS011;13160;51.834;4.706;2023-03-14T01:23:55;11.43;;;1.88;;
25213;SDS011;13160;51.834;4.706;2023-03-14T01:26:26;15.25;;;2.83;;
25213;SDS011;13160;51.834;4.706;2023-03-14T01:28:59;11.52;;;2.22;;
25213;SDS011;13160;51.834;4.706;2023-03-14T01:31:27;14.25;;;2.60;;
25213;SDS011;13160;51.834;4.706;2023-03-14T01:33:56;18.45;;;2.58;;
25213;SDS011;13160;51.834;4.706;2023-03-14T01:36:24;16.45;;;2.47;;
25213;SDS011;13160;51.834;4.706;2023-03-14T01:38:55;17.42;;;2.33;;
25213;SDS011;13160;51.834;4.706;2023-03-14T01:41:24;14.25;;;2.22;;
25213;SDS011;13160;51.834;4.706;2023-03-14T01:43:53;14.70;;;2.58;;
25213;SDS011;13160;51.834;4.706;2023-03-14T01:46:25;13.23;;;2.33;;
25213;SDS011;13160;51.834;4.706;2023-03-14T01:49:11;13.90;;;2.42;;
25213;SDS011;13160;51.834;4.706;2023-03-14T01:51:46;15.02;;;2.55;;
25213;SDS011;13160;51.834;4.706;2023-03-14T01:54:20;15.52;;;2.67;;
25213;SDS011;13160;51.834;4.706;2023-03-14T01:56:55;16.63;;;2.60;;
25213;SDS011;13160;51.834;4.706;2023-03-14T01:59:31;16.63;;;2.58;;
25213;SDS011;13160;51.834;4.706;2023-03-14T02:02:02;13.82;;;2.88;;
25213;SDS011;13160;51.834;4.706;2023-03-14T02:04:34;11.98;;;2.63;;
25213;SDS011;13160;51.834;4.706;2023-03-14T02:07:05;14.50;;;2.67;;
25213;SDS011;13160;51.834;4.706;2023-03-14T02:09:40;11.90;;;2.92;;
25213;SDS011;13160;51.834;4.706;2023-03-14T02:12:10;14.85;;;3.22;;
25213;SDS011;13160;51.834;4.706;2023-03-14T02:14:42;12.85;;;2.95;;
25213;SDS011;13160;51.834;4.706;2023-03-14T02:17:16;16.98;;;3.20;;
25213;SDS011;13160;51.834;4.706;2023-03-14T02:19:53;13.68;;;2.65;;
25213;SDS011;13160;51.834;4.706;2023-03-14T02:22:39;11.88;;;2.95;;
25213;SDS011;13160;51.834;4.706;2023-03-14T02:25:10;14.43;;;3.67;;
25213;SDS011;13160;51.834;4.706;2023-03-14T02:27:46;13.82;;;3.03;;
25213;SDS011;13160;51.834;4.706;2023-03-14T02:30:16;15.40;;;3.17;;
25213;SDS011;13160;51.834;4.706;2023-03-14T02:32:47;11.88;;;2.90;;
25213;SDS011;13160;51.834;4.706;2023-03-14T02:35:20;14.32;;;3.33;;
25213;SDS011;13160;51.834;4.706;2023-03-14T02:37:53;17.83;;;4.38;;
25213;SDS011;13160;51.834;4.706;2023-03-14T02:40:28;15.38;;;3.42;;
25213;SDS011;13160;51.834;4.706;2023-03-14T02:42:57;19.38;;;3.67;;
25213;SDS011;13160;51.834;4.706;2023-03-14T02:45:32;19.27;;;3.55;;
25213;SDS011;13160;51.834;4.706;2023-03-14T02:48:14;15.98;;;3.63;;
25213;SDS011;13160;51.834;4.706;2023-03-14T02:50:48;12.30;;;3.47;;
25213;SDS011;13160;51.834;4.706;2023-03-14T02:53:21;15.95;;;3.08;;
25213;SDS011;13160;51.834;4.706;2023-03-14T02:55:53;15.70;;;3.75;;
25213;SDS011;13160;51.834;4.706;2023-03-14T02:58:24;14.63;;;3.60;;
25213;SDS011;13160;51.834;4.706;2023-03-14T03:00:53;11.13;;;3.13;;
25213;SDS011;13160;51.834;4.706;2023-03-14T03:03:22;14.88;;;2.72;;
25213;SDS011;13160;51.834;4.706;2023-03-14T03:05:51;16.58;;;3.58;;
25213;SDS011;13160;51.834;4.706;2023-03-14T03:08:21;15.15;;;3.28;;
25213;SDS011;13160;51.834;4.706;2023-03-14T03:10:52;16.58;;;3.47;;
25213;SDS011;13160;51.834;4.706;2023-03-14T03:13:21;14.23;;;3.38;;
25213;SDS011;13160;51.834;4.706;2023-03-14T03:15:51;12.20;;;3.17;;
25213;SDS011;13160;51.834;4.706;2023-03-14T03:18:20;14.32;;;3.42;;
25213;SDS011;13160;51.834;4.706;2023-03-14T03:20:48;16.38;;;3.78;;
25213;SDS011;13160;51.834;4.706;2023-03-14T03:23:16;14.10;;;3.05;;
25213;SDS011;13160;51.834;4.706;2023-03-14T03:25:47;18.98;;;3.50;;
25213;SDS011;13160;51.834;4.706;2023-03-14T03:28:16;16.63;;;3.30;;
25213;SDS011;13160;51.834;4.706;2023-03-14T03:30:46;15.50;;;3.47;;
25213;SDS011;13160;51.834;4.706;2023-03-14T03:33:15;15.35;;;3.88;;
25213;SDS011;13160;51.834;4.706;2023-03-14T03:35:44;16.17;;;3.25;;
25213;SDS011;13160;51.834;4.706;2023-03-14T03:38:15;12.07;;;2.83;;
25213;SDS011;13160;51.834;4.706;2023-03-14T03:40:43;14.85;;;3.20;;
25213;SDS011;13160;51.834;4.706;2023-03-14T03:43:12;17.20;;;3.67;;
25213;SDS011;13160;51.834;4.706;2023-03-14T03:45:40;18.45;;;3.33;;
25213;SDS011;13160;51.834;4.706;2023-03-14T03:48:10;18.17;;;3.35;;
25213;SDS011;13160;51.834;4.706;2023-03-14T03:50:43;15.07;;;3.15;;
25213;SDS011;13160;51.834;4.706;2023-03-14T03:53:12;13.93;;;2.85;;
25213;SDS011;13160;51.834;4.706;2023-03-14T03:55:57;12.13;;;3.90;;
25213;SDS011;13160;51.834;4.706;2023-03-14T03:58:26;13.50;;;3.28;;
25213;SDS011;13160;51.834;4.706;2023-03-14T04:00:54;13.52;;;3.55;;
25213;SDS011;13160;51.834;4.706;2023-03-14T04:03:24;12.23;;;2.95;;
25213;SDS011;13160;51.834;4.706;2023-03-14T04:05:59;17.05;;;3.35;;
25213;SDS011;13160;51.834;4.706;2023-03-14T04:08:29;12.88;;;2.95;;
25213;SDS011;13160;51.834;4.706;2023-03-14T04:10:58;11.98;;;2.75;;
25213;SDS011;13160;51.834;4.706;2023-03-14T04:13:28;12.02;;;2.45;;
25213;SDS011;13160;51.834;4.706;2023-03-14T04:15:57;15.85;;;2.92;;
25213;SDS011;13160;51.834;4.706;2023-03-14T04:18:27;13.52;;;2.75;;
25213;SDS011;13160;51.834;4.706;2023-03-14T04:20:57;11.35;;;2.72;;
25213;SDS011;13160;51.834;4.706;2023-03-14T04:23:25;11.38;;;2.47;;
25213;SDS011;13160;51.834;4.706;2023-03-14T04:25:54;10.82;;;2.72;;
25213;SDS011;13160;51.834;4.706;2023-03-14T04:28:22;11.70;;;2.45;;
25213;SDS011;13160;51.834;4.706;2023-03-14T04:30:51;12.70;;;2.58;;
25213;SDS011;13160;51.834;4.706;2023-03-14T04:33:23;9.73;;;2.47;;
25213;SDS011;13160;51.834;4.706;2023-03-14T04:35:54;8.85;;;2.03;;
25213;SDS011;13160;51.834;4.706;2023-03-14T04:38:22;11.90;;;2.28;;
25213;SDS011;13160;51.834;4.706;2023-03-14T04:40:51;11.75;;;2.40;;
25213;SDS011;13160;51.834;4.706;2023-03-14T04:43:19;10.38;;;2.05;;
25213;SDS011;13160;51.834;4.706;2023-03-14T04:45:47;12.05;;;2.30;;
25213;SDS011;13160;51.834;4.706;2023-03-14T04:48:15;9.25;;;2.05;;
25213;SDS011;13160;51.834;4.706;2023-03-14T04:50:44;11.02;;;2.10;;
25213;SDS011;13160;51.834;4.706;2023-03-14T04:53:17;12.18;;;2.40;;
25213;SDS011;13160;51.834;4.706;2023-03-14T04:55:49;10.10;;;2.35;;
25213;SDS011;13160;51.834;4.706;2023-03-14T04:58:18;9.52;;;2.47;;
25213;SDS011;13160;51.834;4.706;2023-03-14T05:00:47;9.15;;;2.08;;
25213;SDS011;13160;51.834;4.706;2023-03-14T05:03:16;10.90;;;3.00;;
25213;SDS011;13160;51.834;4.706;2023-03-14T05:05:45;8.50;;;2.45;;
25213;SDS011;13160;51.834;4.706;2023-03-14T05:08:14;11.90;;;3.47;;
25213;SDS011;13160;51.834;4.706;2023-03-14T05:10:43;9.05;;;3.40;;
25213;SDS011;13160;51.834;4.706;2023-03-14T05:13:12;9.50;;;3.40;;
25213;SDS011;13160;51.834;4.706;2023-03-14T05:15:41;10.27;;;3.88;;
25213;SDS011;13160;51.834;4.706;2023-03-14T05:18:10;11.43;;;3.53;;
25213;SDS011;13160;51.834;4.706;2023-03-14T05:20:38;11.05;;;3.38;;
25213;SDS011;13160;51.834;4.706;2023-03-14T05:23:06;10.25;;;3.20;;
25213;SDS011;13160;51.834;4.706;2023-03-14T05:25:35;9.80;;;3.28;;
25213;SDS011;13160;51.834;4.706;2023-03-14T05:28:05;9.05;;;3.55;;
25213;SDS011;13160;51.834;4.706;2023-03-14T05:30:33;10.98;;;3.50;;
25213;SDS011;13160;51.834;4.706;2023-03-14T05:33:01;10.57;;;3.30;;
25213;SDS011;13160;51.834;4.706;2023-03-14T05:35:30;8.55;;;3.88;;
25213;SDS011;13160;51.834;4.706;2023-03-14T05:37:58;12.27;;;3.95;;
25213;SDS011;13160;51.834;4.706;2023-03-14T05:40:26;10.13;;;4.22;;
25213;SDS011;13160;51.834;4.706;2023-03-14T05:42:55;10.45;;;4.38;;
25213;SDS011;13160;51.834;4.706;2023-03-14T05:45:24;8.52;;;4.32;;
25213;SDS011;13160;51.834;4.706;2023-03-14T05:47:53;13.60;;;4.90;;
25213;SDS011;13160;51.834;4.706;2023-03-14T05:50:21;11.02;;;4.95;;
25213;SDS011;13160;51.834;4.706;2023-03-14T05:52:49;16.65;;;5.35;;
25213;SDS011;13160;51.834;4.706;2023-03-14T05:55:18;13.45;;;4.95;;
25213;SDS011;13160;51.834;4.706;2023-03-14T05:57:46;9.93;;;4.82;;
25213;SDS011;13160;51.834;4.706;2023-03-14T06:00:15;9.75;;;4.97;;
25213;SDS011;13160;51.834;4.706;2023-03-14T06:02:46;15.38;;;5.60;;
25213;SDS011;13160;51.834;4.706;2023-03-14T06:05:18;13.98;;;4.88;;
25213;SDS011;13160;51.834;4.706;2023-03-14T06:07:46;7.22;;;2.63;;
25213;SDS011;13160;51.834;4.706;2023-03-14T06:10:18;5.93;;;1.60;;
25213;SDS011;13160;51.834;4.706;2023-03-14T06:12:46;7.55;;;1.40;;
25213;SDS011;13160;51.834;4.706;2023-03-14T06:15:16;4.68;;;1.38;;
25213;SDS011;13160;51.834;4.706;2023-03-14T06:17:44;6.65;;;1.42;;
25213;SDS011;13160;51.834;4.706;2023-03-14T06:20:14;6.10;;;1.75;;
25213;SDS011;13160;51.834;4.706;2023-03-14T06:22:46;4.97;;;1.15;;
25213;SDS011;13160;51.834;4.706;2023-03-14T06:25:14;6.63;;;1.30;;
25213;SDS011;13160;51.834;4.706;2023-03-14T06:27:46;7.78;;;1.73;;
25213;SDS011;13160;51.834;4.706;2023-03-14T06:30:14;5.30;;;1.17;;
25213;SDS011;13160;51.834;4.706;2023-03-14T06:32:47;4.60;;;1.10;;
25213;SDS011;13160;51.834;4.706;2023-03-14T06:35:15;6.22;;;1.25;;
25213;SDS011;13160;51.834;4.706;2023-03-14T06:37:44;5.18;;;1.27;;
25213;SDS011;13160;51.834;4.706;2023-03-14T06:40:12;7.68;;;1.13;;
25213;SDS011;13160;51.834;4.706;2023-03-14T06:42:44;6.38;;;1.48;;
25213;SDS011;13160;51.834;4.706;2023-03-14T06:45:13;7.57;;;1.33;;
25213;SDS011;13160;51.834;4.706;2023-03-14T06:47:42;5.38;;;1.60;;
25213;SDS011;13160;51.834;4.706;2023-03-14T06:50:12;8.77;;;1.60;;
25213;SDS011;13160;51.834;4.706;2023-03-14T06:52:40;4.40;;;1.05;;
25213;SDS011;13160;51.834;4.706;2023-03-14T06:55:14;8.48;;;1.92;;
25213;SDS011;13160;51.834;4.706;2023-03-14T06:57:45;5.30;;;1.40;;
25213;SDS011;13160;51.834;4.706;2023-03-14T07:00:14;7.97;;;1.52;;
25213;SDS011;13160;51.834;4.706;2023-03-14T07:02:45;6.88;;;1.60;;
25213;SDS011;13160;51.834;4.706;2023-03-14T07:05:14;8.15;;;1.77;;
25213;SDS011;13160;51.834;4.706;2023-03-14T07:07:46;5.25;;;2.33;;
25213;SDS011;13160;51.834;4.706;2023-03-14T07:10:15;4.43;;;1.40;;
25213;SDS011;13160;51.834;4.706;2023-03-14T07:12:44;5.82;;;1.50;;
25213;SDS011;13160;51.834;4.706;2023-03-14T07:15:12;6.15;;;1.70;;
25213;SDS011;13160;51.834;4.706;2023-03-14T07:17:44;6.93;;;1.63;;
25213;SDS011;13160;51.834;4.706;2023-03-14T07:20:16;8.05;;;1.92;;
25213;SDS011;13160;51.834;4.706;2023-03-14T07:22:46;12.98;;;2.35;;
25213;SDS011;13160;51.834;4.706;2023-03-14T07:25:18;11.55;;;2.08;;
25213;SDS011;13160;51.834;4.706;2023-03-14T07:27:46;9.40;;;2.10;;
25213;SDS011;13160;51.834;4.706;2023-03-14T07:30:17;14.05;;;1.95;;
25213;SDS011;13160;51.834;4.706;2023-03-14T07:32:47;6.50;;;2.47;;
25213;SDS011;13160;51.834;4.706;2023-03-14T07:35:17;8.02;;;1.88;;
25213;SDS011;13160;51.834;4.706;2023-03-14T07:37:45;10.90;;;1.83;;
25213;SDS011;13160;51.834;4.706;2023-03-14T07:40:13;10.98;;;2.08;;
25213;SDS011;13160;51.834;4.706;2023-03-14T07:42:42;10.50;;;1.92;;
25213;SDS011;13160;51.834;4.706;2023-03-14T07:45:10;11.88;;;2.03;;
25213;SDS011;13160;51.834;4.706;2023-03-14T07:47:39;9.55;;;2.00;;
25213;SDS011;13160;51.834;4.706;2023-03-14T07:50:07;15.48;;;2.10;;
25213;SDS011;13160;51.834;4.706;2023-03-14T07:52:39;15.75;;;1.90;;
25213;SDS011;13160;51.834;4.706;2023-03-14T07:55:07;19.13;;;2.38;;
25213;SDS011;13160;51.834;4.706;2023-03-14T07:57:36;12.40;;;2.05;;
25213;SDS011;13160;51.834;4.706;2023-03-14T08:00:05;10.68;;;1.90;;
25213;SDS011;13160;51.834;4.706;2023-03-14T08:02:40;13.93;;;1.55;;
25213;SDS011;13160;51.834;4.706;2023-03-14T08:05:09;10.23;;;1.63;;
25213;SDS011;13160;51.834;4.706;2023-03-14T08:07:38;8.68;;;1.25;;
25213;SDS011;13160;51.834;4.706;2023-03-14T08:10:07;11.80;;;1.80;;
25213;SDS011;13160;51.834;4.706;2023-03-14T08:12:39;8.07;;;1.80;;
25213;SDS011;13160;51.834;4.706;2023-03-14T08:15:07;6.25;;;1.30;;
25213;SDS011;13160;51.834;4.706;2023-03-14T08:17:37;4.45;;;1.10;;
25213;SDS011;13160;51.834;4.706;2023-03-14T08:20:06;7.07;;;1.38;;
25213;SDS011;13160;51.834;4.706;2023-03-14T08:22:39;6.10;;;1.10;;
25213;SDS011;13160;51.834;4.706;2023-03-14T08:25:07;2.95;;;0.80;;
25213;SDS011;13160;51.834;4.706;2023-03-14T08:27:36;8.65;;;1.30;;
25213;SDS011;13160;51.834;4.706;2023-03-14T08:30:06;11.30;;;1.58;;
25213;SDS011;13160;51.834;4.706;2023-03-14T08:32:38;7.97;;;1.42;;
25213;SDS011;13160;51.834;4.706;2023-03-14T08:35:07;10.65;;;2.15;;
25213;SDS011;13160;51.834;4.706;2023-03-14T08:37:37;14.00;;;2.13;;
25213;SDS011;13160;51.834;4.706;2023-03-14T08:40:07;10.93;;;2.30;;
25213;SDS011;13160;51.834;4.706;2023-03-14T08:42:38;14.95;;;2.88;;
25213;SDS011;13160;51.834;4.706;2023-03-14T08:45:07;10.55;;;2.85;;
25213;SDS011;13160;51.834;4.706;2023-03-14T08:47:39;10.25;;;2.65;;
25213;SDS011;13160;51.834;4.706;2023-03-14T08:50:08;14.18;;;2.30;;
25213;SDS011;13160;51.834;4.706;2023-03-14T08:52:43;10.20;;;1.73;;
25213;SDS011;13160;51.834;4.706;2023-03-14T08:55:11;14.05;;;2.08;;
25213;SDS011;13160;51.834;4.706;2023-03-14T08:57:39;7.32;;;1.80;;
25213;SDS011;13160;51.834;4.706;2023-03-14T09:00:08;6.03;;;1.02;;
25213;SDS011;13160;51.834;4.706;2023-03-14T09:02:40;4.13;;;0.90;;
25213;SDS011;13160;51.834;4.706;2023-03-14T09:05:09;7.28;;;0.90;;
25213;SDS011;13160;51.834;4.706;2023-03-14T09:07:38;9.05;;;1.10;;
25213;SDS011;13160;51.834;4.706;2023-03-14T09:10:10;3.88;;;0.82;;
25213;SDS011;13160;51.834;4.706;2023-03-14T09:12:38;6.45;;;1.23;;
25213;SDS011;13160;51.834;4.706;2023-03-14T09:15:07;6.53;;;1.00;;
25213;SDS011;13160;51.834;4.706;2023-03-14T09:17:37;8.88;;;1.20;;
25213;SDS011;13160;51.834;4.706;2023-03-14T09:20:05;10.35;;;1.30;;
25213;SDS011;13160;51.834;4.706;2023-03-14T09:22:35;7.13;;;1.48;;
25213;SDS011;13160;51.834;4.706;2023-03-14T09:25:04;11.80;;;1.70;;
25213;SDS011;13160;51.834;4.706;2023-03-14T09:27:35;9.30;;;1.60;;
25213;SDS011;13160;51.834;4.706;2023-03-14T09:30:04;10.25;;;1.33;;
25213;SDS011;13160;51.834;4.706;2023-03-14T09:32:33;8.40;;;1.45;;
25213;SDS011;13160;51.834;4.706;2023-03-14T09:35:02;9.95;;;1.73;;
25213;SDS011;13160;51.834;4.706;2023-03-14T09:37:31;11.50;;;1.85;;
25213;SDS011;13160;51.834;4.706;2023-03-14T09:39:59;8.68;;;1.58;;
25213;SDS011;13160;51.834;4.706;2023-03-14T09:42:32;11.82;;;1.92;;
25213;SDS011;13160;51.834;4.706;2023-03-14T09:45:03;15.35;;;2.05;;
25213;SDS011;13160;51.834;4.706;2023-03-14T09:47:34;16.15;;;2.72;;
25213;SDS011;13160;51.834;4.706;2023-03-14T09:50:12;12.07;;;2.50;;
25213;SDS011;13160;51.834;4.706;2023-03-14T09:52:42;12.93;;;2.30;;
25213;SDS011;13160;51.834;4.706;2023-03-14T09:55:16;14.63;;;3.30;;
25213;SDS011;13160;51.834;4.706;2023-03-14T09:57:45;15.32;;;2.47;;
25213;SDS011;13160;51.834;4.706;2023-03-14T10:00:18;17.45;;;2.50;;
25213;SDS011;13160;51.834;4.706;2023-03-14T10:02:50;12.07;;;2.28;;
25213;SDS011;13160;51.834;4.706;2023-03-14T10:05:22;23.55;;;4.03;;
25213;SDS011;13160;51.834;4.706;2023-03-14T10:07:54;11.88;;;1.67;;
25213;SDS011;13160;51.834;4.706;2023-03-14T10:10:23;15.57;;;2.92;;
25213;SDS011;13160;51.834;4.706;2023-03-14T10:12:55;17.02;;;3.78;;
25213;SDS011;13160;51.834;4.706;2023-03-14T10:15:28;15.80;;;2.60;;
25213;SDS011;13160;51.834;4.706;2023-03-14T10:18:00;19.42;;;3.00;;
25213;SDS011;13160;51.834;4.706;2023-03-14T10:20:31;16.52;;;2.30;;
25213;SDS011;13160;51.834;4.706;2023-03-14T10:23:02;11.60;;;2.47;;
25213;SDS011;13160;51.834;4.706;2023-03-14T10:25:33;14.10;;;2.55;;
25213;SDS011;13160;51.834;4.706;2023-03-14T10:28:04;11.30;;;2.47;;
25213;SDS011;13160;51.834;4.706;2023-03-14T10:30:38;9.40;;;1.80;;
25213;SDS011;13160;51.834;4.706;2023-03-14T10:33:12;9.70;;;1.70;;
25213;SDS011;13160;51.834;4.706;2023-03-14T10:35:52;14.13;;;2.28;;
25213;SDS011;13160;51.834;4.706;2023-03-14T10:38:24;12.65;;;2.40;;
25213;SDS011;13160;51.834;4.706;2023-03-14T10:40:55;17.55;;;2.75;;
25213;SDS011;13160;51.834;4.706;2023-03-14T10:43:26;25.02;;;3.20;;
25213;SDS011;13160;51.834;4.706;2023-03-14T10:46:00;17.42;;;3.08;;
25213;SDS011;13160;51.834;4.706;2023-03-14T10:48:34;21.83;;;3.17;;
25213;SDS011;13160;51.834;4.706;2023-03-14T10:51:07;25.45;;;3.40;;
25213;SDS011;13160;51.834;4.706;2023-03-14T10:53:40;23.52;;;3.63;;
25213;SDS011;13160;51.834;4.706;2023-03-14T10:56:11;24.38;;;3.88;;
25213;SDS011;13160;51.834;4.706;2023-03-14T10:58:42;27.48;;;3.35;;
25213;SDS011;13160;51.834;4.706;2023-03-14T11:01:25;30.55;;;4.53;;
25213;SDS011;13160;51.834;4.706;2023-03-14T11:04:08;27.02;;;3.38;;
25213;SDS011;13160;51.834;4.706;2023-03-14T11:06:50;22.25;;;3.67;;
25213;SDS011;13160;51.834;4.706;2023-03-14T11:09:25;20.13;;;3.58;;
25213;SDS011;13160;51.834;4.706;2023-03-14T11:12:01;20.10;;;2.67;;
25213;SDS011;13160;51.834;4.706;2023-03-14T11:14:59;20.88;;;3.20;;
25213;SDS011;13160;51.834;4.706;2023-03-14T11:17:37;21.27;;;3.10;;
25213;SDS011;13160;51.834;4.706;2023-03-14T11:20:19;27.17;;;3.70;;
25213;SDS011;13160;51.834;4.706;2023-03-14T11:23:01;21.73;;;3.72;;
25213;SDS011;13160;51.834;4.706;2023-03-14T11:25:38;24.73;;;3.25;;
25213;SDS011;13160;51.834;4.706;2023-03-14T11:28:17;21.33;;;2.88;;
25213;SDS011;13160;51.834;4.706;2023-03-14T11:30:54;20.23;;;2.83;;
25213;SDS011;13160;51.834;4.706;2023-03-14T11:33:29;15.60;;;2.60;;
25213;SDS011;13160;51.834;4.706;2023-03-14T11:36:06;17.20;;;2.88;;
25213;SDS011;13160;51.834;4.706;2023-03-14T11:38:37;23.02;;;3.30;;
25213;SDS011;13160;51.834;4.706;2023-03-14T11:41:12;18.58;;;2.83;;
25213;SDS011;13160;51.834;4.706;2023-03-14T11:43:46;22.35;;;2.47;;
25213;SDS011;13160;51.834;4.706;2023-03-14T11:46:17;21.73;;;2.45;;
25213;SDS011;13160;51.834;4.706;2023-03-14T11:48:55;22.85;;;2.92;;
25213;SDS011;13160;51.834;4.706;2023-03-14T11:51:32;21.88;;;3.30;;
25213;SDS011;13160;51.834;4.706;2023-03-14T11:54:10;17.90;;;2.95;;
25213;SDS011;13160;51.834;4.706;2023-03-14T11:56:45;16.45;;;2.97;;
25213;SDS011;13160;51.834;4.706;2023-03-14T11:59:19;13.75;;;2.40;;
25213;SDS011;13160;51.834;4.706;2023-03-14T12:01:55;14.48;;;2.15;;
25213;SDS011;13160;51.834;4.706;2023-03-14T12:04:34;13.48;;;2.78;;
25213;SDS011;13160;51.834;4.706;2023-03-14T12:07:20;16.40;;;2.35;;
25213;SDS011;13160;51.834;4.706;2023-03-14T12:09:51;11.93;;;2.38;;
25213;SDS011;13160;51.834;4.706;2023-03-14T12:12:23;14.25;;;2.50;;
25213;SDS011;13160;51.834;4.706;2023-03-14T12:14:55;11.63;;;1.80;;
25213;SDS011;13160;51.834;4.706;2023-03-14T12:17:26;15.10;;;2.38;;
25213;SDS011;13160;51.834;4.706;2023-03-14T12:20:06;12.75;;;3.15;;
25213;SDS011;13160;51.834;4.706;2023-03-14T12:22:46;18.63;;;2.28;;
25213;SDS011;13160;51.834;4.706;2023-03-14T12:25:18;14.80;;;2.10;;
25213;SDS011;13160;51.834;4.706;2023-03-14T12:28:03;14.75;;;2.75;;
25213;SDS011;13160;51.834;4.706;2023-03-14T12:30:44;12.63;;;2.70;;
25213;SDS011;13160;51.834;4.706;2023-03-14T12:36:02;13.52;;;2.70;;
25213;SDS011;13160;51.834;4.706;2023-03-14T12:41:51;14.23;;;2.30;;
25213;SDS011;13160;51.834;4.706;2023-03-14T12:44:40;21.88;;;2.63;;
25213;SDS011;13160;51.834;4.706;2023-03-14T12:50:24;11.32;;;1.60;;
25213;SDS011;13160;51.834;4.706;2023-03-14T12:56:34;15.77;;;2.20;;
25213;SDS011;13160;51.834;4.706;2023-03-14T12:59:34;13.63;;;2.83;;
25213;SDS011;13160;51.834;4.706;2023-03-14T13:02:15;21.70;;;2.58;;
25213;SDS011;13160;51.834;4.706;2023-03-14T13:04:52;10.23;;;1.80;;
25213;SDS011;13160;51.834;4.706;2023-03-14T13:07:34;13.48;;;1.88;;
25213;SDS011;13160;51.834;4.706;2023-03-14T13:10:24;11.27;;;1.98;;
25213;SDS011;13160;51.834;4.706;2023-03-14T13:12:54;9.70;;;1.80;;
25213;SDS011;13160;51.834;4.706;2023-03-14T13:15:27;13.75;;;2.17;;
25213;SDS011;13160;51.834;4.706;2023-03-14T13:18:02;17.20;;;2.10;;
25213;SDS011;13160;51.834;4.706;2023-03-14T13:20:40;12.93;;;1.90;;
25213;SDS011;13160;51.834;4.706;2023-03-14T13:23:19;18.35;;;2.42;;
25213;SDS011;13160;51.834;4.706;2023-03-14T13:25:52;11.00;;;2.00;;
25213;SDS011;13160;51.834;4.706;2023-03-14T13:28:24;7.32;;;1.80;;
25213;SDS011;13160;51.834;4.706;2023-03-14T13:30:54;12.30;;;1.95;;
25213;SDS011;13160;51.834;4.706;2023-03-14T13:33:26;10.02;;;1.58;;
25213;SDS011;13160;51.834;4.706;2023-03-14T13:36:00;7.00;;;1.52;;
25213;SDS011;13160;51.834;4.706;2023-03-14T13:38:35;6.20;;;1.25;;
25213;SDS011;13160;51.834;4.706;2023-03-14T13:41:06;7.40;;;1.52;;
25213;SDS011;13160;51.834;4.706;2023-03-14T13:43:39;7.18;;;1.83;;
25213;SDS011;13160;51.834;4.706;2023-03-14T13:46:12;12.43;;;1.83;;
25213;SDS011;13160;51.834;4.706;2023-03-14T13:48:47;9.95;;;2.22;;
25213;SDS011;13160;51.834;4.706;2023-03-14T13:51:17;8.48;;;1.50;;
25213;SDS011;13160;51.834;4.706;2023-03-14T13:53:51;9.55;;;1.70;;
25213;SDS011;13160;51.834;4.706;2023-03-14T13:56:25;11.77;;;2.30;;
25213;SDS011;13160;51.834;4.706;2023-03-14T13:59:00;15.35;;;1.92;;
25213;SDS011;13160;51.834;4.706;2023-03-14T14:01:29;8.18;;;1.70;;
25213;SDS011;13160;51.834;4.706;2023-03-14T14:04:02;7.15;;;1.65;;
25213;SDS011;13160;51.834;4.706;2023-03-14T14:06:38;12.43;;;1.75;;
25213;SDS011;13160;51.834;4.706;2023-03-14T14:09:18;11.65;;;2.53;;
25213;SDS011;13160;51.834;4.706;2023-03-14T14:11:53;8.38;;;1.52;;
25213;SDS011;13160;51.834;4.706;2023-03-14T14:14:41;16.58;;;2.25;;
25213;SDS011;13160;51.834;4.706;2023-03-14T14:17:14;11.98;;;1.52;;
25213;SDS011;13160;51.834;4.706;2023-03-14T14:19:46;11.85;;;1.50;;
25213;SDS011;13160;51.834;4.706;2023-03-14T14:22:15;10.60;;;2.50;;
25213;SDS011;13160;51.834;4.706;2023-03-14T14:24:45;13.50;;;1.90;;
25213;SDS011;13160;51.834;4.706;2023-03-14T14:27:16;10.90;;;2.20;;
25213;SDS011;13160;51.834;4.706;2023-03-14T14:29:59;11.45;;;2.00;;
25213;SDS011;13160;51.834;4.706;2023-03-14T14:32:35;14.57;;;2.20;;
25213;SDS011;13160;51.834;4.706;2023-03-14T14:35:06;8.43;;;1.98;;
25213;SDS011;13160;51.834;4.706;2023-03-14T14:37:41;10.70;;;1.60;;
25213;SDS011;13160;51.834;4.706;2023-03-14T14:40:16;10.63;;;1.40;;
25213;SDS011;13160;51.834;4.706;2023-03-14T14:42:50;11.77;;;1.70;;
25213;SDS011;13160;51.834;4.706;2023-03-14T14:45:19;9.45;;;2.10;;
25213;SDS011;13160;51.834;4.706;2023-03-14T14:47:53;9.32;;;2.28;;
25213;SDS011;13160;51.834;4.706;2023-03-14T14:50:30;11.55;;;2.25;;
25213;SDS011;13160;51.834;4.706;2023-03-14T14:53:02;10.43;;;1.63;;
25213;SDS011;13160;51.834;4.706;2023-03-14T14:55:49;9.68;;;1.80;;
25213;SDS011;13160;51.834;4.706;2023-03-14T14:58:22;13.38;;;2.00;;
25213;SDS011;13160;51.834;4.706;2023-03-14T15:00:56;12.85;;;1.63;;
25213;SDS011;13160;51.834;4.706;2023-03-14T15:03:30;13.10;;;2.55;;
25213;SDS011;13160;51.834;4.706;2023-03-14T15:06:02;13.15;;;2.08;;
25213;SDS011;13160;51.834;4.706;2023-03-14T15:08:31;10.10;;;1.92;;
25213;SDS011;13160;51.834;4.706;2023-03-14T15:11:00;9.77;;;1.52;;
25213;SDS011;13160;51.834;4.706;2023-03-14T15:13:30;15.30;;;1.88;;
25213;SDS011;13160;51.834;4.706;2023-03-14T15:16:00;14.30;;;2.03;;
25213;SDS011;13160;51.834;4.706;2023-03-14T15:18:29;10.10;;;1.77;;